石垣島の過去48時間の天気

石垣島 (Ishigaki jima)

現在時刻: 9/19 08:11 JST (9/18 23:11 UTC) 以下の時間は現地時間です。

過去48時間のMETAR気象情報
時間 風向 風速(m/s) 視程 気温(℃) 湿度(%) 気圧(hPa) 天気現象
19 08:00 不定 1 10km以上 29 84 1012
19 07:00 静穏 0 10km以上 26 89 1012
19 06:00 不定 1 10km以上 25 94 1012
ROIG 182300Z VRB02KT 9999 FEW018 29/26 Q1012
ROIG 182200Z 00000KT 9999 FEW019 26/24 Q1012
ROIG 182100Z VRB01KT 9999 FEW019 25/24 Q1012